sensor_id;sensor_type;location;lat;lon;timestamp;pressure;altitude;pressure_sealevel;temperature;humidity
8140;BME280;4111;50.972;7.072;2023-03-01T00:01:31;102474.44;;;0.66;67.82
8140;BME280;4111;50.972;7.072;2023-03-01T00:03:59;102483.41;;;0.65;68.62
8140;BME280;4111;50.972;7.072;2023-03-01T00:06:26;102487.22;;;0.62;68.23
8140;BME280;4111;50.972;7.072;2023-03-01T00:08:54;102487.78;;;0.56;68.86
8140;BME280;4111;50.972;7.072;2023-03-01T00:11:23;102489.41;;;0.28;69.56
8140;BME280;4111;50.972;7.072;2023-03-01T00:13:52;102489.78;;;0.23;69.98
8140;BME280;4111;50.972;7.072;2023-03-01T00:16:27;102486.19;;;0.34;69.70
8140;BME280;4111;50.972;7.072;2023-03-01T00:18:55;102487.84;;;0.35;69.68
8140;BME280;4111;50.972;7.072;2023-03-01T00:21:22;102487.75;;;0.46;70.03
8140;BME280;4111;50.972;7.072;2023-03-01T00:23:49;102485.69;;;0.59;69.56
8140;BME280;4111;50.972;7.072;2023-03-01T00:26:17;102486.50;;;0.60;69.11
8140;BME280;4111;50.972;7.072;2023-03-01T00:28:44;102479.88;;;0.54;69.66
8140;BME280;4111;50.972;7.072;2023-03-01T00:31:14;102480.44;;;0.48;70.22
8140;BME280;4111;50.972;7.072;2023-03-01T00:33:41;102478.19;;;0.44;70.39
8140;BME280;4111;50.972;7.072;2023-03-01T00:36:09;102482.44;;;0.56;69.44
8140;BME280;4111;50.972;7.072;2023-03-01T00:38:37;102481.03;;;0.62;69.62
8140;BME280;4111;50.972;7.072;2023-03-01T00:41:09;102479.63;;;0.57;69.96
8140;BME280;4111;50.972;7.072;2023-03-01T00:43:35;102478.03;;;0.45;70.46
8140;BME280;4111;50.972;7.072;2023-03-01T00:46:07;102472.97;;;0.42;70.50
8140;BME280;4111;50.972;7.072;2023-03-01T00:48:35;102477.31;;;0.43;70.01
8140;BME280;4111;50.972;7.072;2023-03-01T00:51:06;102469.19;;;0.54;69.96
8140;BME280;4111;50.972;7.072;2023-03-01T00:53:34;102470.19;;;0.53;69.88
8140;BME280;4111;50.972;7.072;2023-03-01T00:56:00;102481.97;;;0.41;69.95
8140;BME280;4111;50.972;7.072;2023-03-01T00:58:28;102464.94;;;0.42;69.88
8140;BME280;4111;50.972;7.072;2023-03-01T01:00:54;102464.81;;;0.44;70.21
8140;BME280;4111;50.972;7.072;2023-03-01T01:03:21;102470.28;;;0.32;70.32
8140;BME280;4111;50.972;7.072;2023-03-01T01:05:48;102476.19;;;0.36;70.82
8140;BME280;4111;50.972;7.072;2023-03-01T01:08:15;102465.22;;;0.39;70.58
8140;BME280;4111;50.972;7.072;2023-03-01T01:10:43;102454.81;;;0.36;70.49
8140;BME280;4111;50.972;7.072;2023-03-01T01:13:10;102452.16;;;0.36;70.71
8140;BME280;4111;50.972;7.072;2023-03-01T01:15:36;102446.66;;;0.47;70.28
8140;BME280;4111;50.972;7.072;2023-03-01T01:18:03;102444.56;;;0.51;70.33
8140;BME280;4111;50.972;7.072;2023-03-01T01:20:29;102444.16;;;0.46;70.27
8140;BME280;4111;50.972;7.072;2023-03-01T01:22:56;102439.06;;;0.43;70.50
8140;BME280;4111;50.972;7.072;2023-03-01T01:25:22;102437.91;;;0.35;70.50
8140;BME280;4111;50.972;7.072;2023-03-01T01:27:51;102432.28;;;0.29;70.10
8140;BME280;4111;50.972;7.072;2023-03-01T01:30:17;102429.91;;;0.35;71.07
8140;BME280;4111;50.972;7.072;2023-03-01T01:32:44;102427.53;;;0.42;70.27
8140;BME280;4111;50.972;7.072;2023-03-01T01:35:10;102426.00;;;0.39;70.30
8140;BME280;4111;50.972;7.072;2023-03-01T01:37:37;102421.63;;;0.38;70.53
8140;BME280;4111;50.972;7.072;2023-03-01T01:40:03;102418.06;;;0.18;70.89
8140;BME280;4111;50.972;7.072;2023-03-01T01:42:30;102417.03;;;0.10;71.13
8140;BME280;4111;50.972;7.072;2023-03-01T01:45:27;102416.75;;;0.03;71.47
8140;BME280;4111;50.972;7.072;2023-03-01T01:47:56;102410.00;;;-0.01;71.60
8140;BME280;4111;50.972;7.072;2023-03-01T01:50:23;102400.47;;;0.06;71.92
8140;BME280;4111;50.972;7.072;2023-03-01T01:52:52;102401.47;;;0.15;71.63
8140;BME280;4111;50.972;7.072;2023-03-01T01:55:22;102395.53;;;0.11;71.84
8140;BME280;4111;50.972;7.072;2023-03-01T01:57:53;102394.00;;;0.09;71.56
8140;BME280;4111;50.972;7.072;2023-03-01T02:00:24;102387.53;;;0.11;71.49
8140;BME280;4111;50.972;7.072;2023-03-01T02:02:55;102389.25;;;0.22;71.13
8140;BME280;4111;50.972;7.072;2023-03-01T02:05:34;102385.75;;;0.41;71.35
8140;BME280;4111;50.972;7.072;2023-03-01T02:08:03;102387.69;;;0.29;70.88
8140;BME280;4111;50.972;7.072;2023-03-01T02:10:32;102383.59;;;0.15;70.94
8140;BME280;4111;50.972;7.072;2023-03-01T02:13:02;102381.06;;;0.04;70.71
8140;BME280;4111;50.972;7.072;2023-03-01T02:15:34;102388.06;;;0.05;71.27
8140;BME280;4111;50.972;7.072;2023-03-01T02:18:02;102381.09;;;0.14;71.41
8140;BME280;4111;50.972;7.072;2023-03-01T02:23:03;102385.03;;;0.29;70.49
8140;BME280;4111;50.972;7.072;2023-03-01T02:25:37;102384.91;;;0.41;70.90
8140;BME280;4111;50.972;7.072;2023-03-01T02:30:43;102373.25;;;0.32;70.48
8140;BME280;4111;50.972;7.072;2023-03-01T02:33:30;102377.88;;;0.30;71.02
8140;BME280;4111;50.972;7.072;2023-03-01T02:36:05;102378.41;;;0.24;70.45
8140;BME280;4111;50.972;7.072;2023-03-01T02:38:33;102384.19;;;0.29;71.02
8140;BME280;4111;50.972;7.072;2023-03-01T02:41:00;102386.97;;;0.17;71.26
8140;BME280;4111;50.972;7.072;2023-03-01T02:43:31;102380.94;;;0.15;71.42
8140;BME280;4111;50.972;7.072;2023-03-01T02:46:03;102377.28;;;0.16;71.69
8140;BME280;4111;50.972;7.072;2023-03-01T02:48:40;102369.53;;;0.13;71.31
8140;BME280;4111;50.972;7.072;2023-03-01T02:51:17;102370.09;;;0.17;71.76
8140;BME280;4111;50.972;7.072;2023-03-01T02:54:07;102372.66;;;0.18;71.44
8140;BME280;4111;50.972;7.072;2023-03-01T02:56:35;102370.41;;;0.24;71.32
8140;BME280;4111;50.972;7.072;2023-03-01T02:59:02;102369.56;;;0.33;70.60
8140;BME280;4111;50.972;7.072;2023-03-01T03:01:29;102369.16;;;0.28;70.97
8140;BME280;4111;50.972;7.072;2023-03-01T03:04:08;102366.03;;;0.23;70.91
8140;BME280;4111;50.972;7.072;2023-03-01T03:06:36;102361.09;;;0.08;71.39
8140;BME280;4111;50.972;7.072;2023-03-01T03:09:03;102356.59;;;0.09;71.33
8140;BME280;4111;50.972;7.072;2023-03-01T03:11:30;102351.53;;;0.15;70.89
8140;BME280;4111;50.972;7.072;2023-03-01T03:13:56;102352.94;;;0.10;70.62
8140;BME280;4111;50.972;7.072;2023-03-01T03:16:23;102346.59;;;0.01;71.32
8140;BME280;4111;50.972;7.072;2023-03-01T03:18:50;102351.78;;;-0.07;71.45
8140;BME280;4111;50.972;7.072;2023-03-01T03:21:17;102348.13;;;-0.06;71.53
8140;BME280;4111;50.972;7.072;2023-03-01T03:23:43;102338.00;;;-0.12;71.81
8140;BME280;4111;50.972;7.072;2023-03-01T03:26:10;102336.59;;;-0.16;71.70
8140;BME280;4111;50.972;7.072;2023-03-01T03:28:41;102338.38;;;-0.27;72.18
8140;BME280;4111;50.972;7.072;2023-03-01T03:31:07;102339.94;;;-0.24;72.71
8140;BME280;4111;50.972;7.072;2023-03-01T03:33:34;102337.41;;;-0.26;72.66
8140;BME280;4111;50.972;7.072;2023-03-01T03:36:01;102342.59;;;-0.24;72.68
8140;BME280;4111;50.972;7.072;2023-03-01T03:38:27;102344.97;;;-0.31;72.42
8140;BME280;4111;50.972;7.072;2023-03-01T03:41:05;102348.94;;;-0.25;72.38
8140;BME280;4111;50.972;7.072;2023-03-01T03:43:35;102352.03;;;-0.20;72.19
8140;BME280;4111;50.972;7.072;2023-03-01T03:46:03;102346.97;;;-0.23;73.21
8140;BME280;4111;50.972;7.072;2023-03-01T03:48:38;102346.66;;;-0.30;73.30
8140;BME280;4111;50.972;7.072;2023-03-01T03:51:06;102341.84;;;-0.36;73.39
8140;BME280;4111;50.972;7.072;2023-03-01T03:53:33;102336.53;;;-0.36;73.31
8140;BME280;4111;50.972;7.072;2023-03-01T03:55:59;102339.91;;;-0.34;73.21
8140;BME280;4111;50.972;7.072;2023-03-01T03:58:26;102330.63;;;-0.30;73.29
8140;BME280;4111;50.972;7.072;2023-03-01T04:00:54;102332.34;;;-0.29;72.96
8140;BME280;4111;50.972;7.072;2023-03-01T04:03:26;102328.97;;;-0.31;73.01
8140;BME280;4111;50.972;7.072;2023-03-01T04:05:52;102325.41;;;-0.41;73.25
8140;BME280;4111;50.972;7.072;2023-03-01T04:08:21;102316.53;;;-0.42;72.98
8140;BME280;4111;50.972;7.072;2023-03-01T04:10:50;102316.00;;;-0.45;73.63
8140;BME280;4111;50.972;7.072;2023-03-01T04:13:20;102317.97;;;-0.47;73.69
8140;BME280;4111;50.972;7.072;2023-03-01T04:15:51;102312.03;;;-0.51;73.64
8140;BME280;4111;50.972;7.072;2023-03-01T04:18:19;102316.53;;;-0.51;73.84
8140;BME280;4111;50.972;7.072;2023-03-01T04:20:46;102315.97;;;-0.55;74.24
8140;BME280;4111;50.972;7.072;2023-03-01T04:23:18;102315.63;;;-0.62;74.96
8140;BME280;4111;50.972;7.072;2023-03-01T04:25:53;102311.72;;;-0.57;74.53
8140;BME280;4111;50.972;7.072;2023-03-01T04:28:26;102311.19;;;-0.51;74.50
8140;BME280;4111;50.972;7.072;2023-03-01T04:30:55;102315.81;;;-0.53;74.81
8140;BME280;4111;50.972;7.072;2023-03-01T04:33:22;102307.53;;;-0.50;74.40
8140;BME280;4111;50.972;7.072;2023-03-01T04:35:48;102307.25;;;-0.57;74.47
8140;BME280;4111;50.972;7.072;2023-03-01T04:38:19;102312.84;;;-0.60;74.70
8140;BME280;4111;50.972;7.072;2023-03-01T04:40:46;102308.63;;;-0.63;74.60
8140;BME280;4111;50.972;7.072;2023-03-01T04:43:13;102309.16;;;-0.69;74.65
8140;BME280;4111;50.972;7.072;2023-03-01T04:45:40;102306.63;;;-0.70;74.42
8140;BME280;4111;50.972;7.072;2023-03-01T04:48:07;102309.47;;;-0.62;74.75
8140;BME280;4111;50.972;7.072;2023-03-01T04:50:34;102305.50;;;-0.68;74.59
8140;BME280;4111;50.972;7.072;2023-03-01T04:53:01;102313.06;;;-0.73;74.15
8140;BME280;4111;50.972;7.072;2023-03-01T04:55:27;102303.78;;;-0.78;74.53
8140;BME280;4111;50.972;7.072;2023-03-01T04:57:54;102298.81;;;-0.83;74.75
8140;BME280;4111;50.972;7.072;2023-03-01T05:00:21;102292.94;;;-0.87;75.04
8140;BME280;4111;50.972;7.072;2023-03-01T05:02:53;102302.03;;;-0.89;74.75
8140;BME280;4111;50.972;7.072;2023-03-01T05:05:40;102304.44;;;-0.86;75.35
8140;BME280;4111;50.972;7.072;2023-03-01T05:08:08;102304.13;;;-0.93;75.07
8140;BME280;4111;50.972;7.072;2023-03-01T05:10:35;102294.38;;;-1.04;75.31
8140;BME280;4111;50.972;7.072;2023-03-01T05:13:03;102293.69;;;-1.06;75.48
8140;BME280;4111;50.972;7.072;2023-03-01T05:15:31;102304.88;;;-1.12;75.76
8140;BME280;4111;50.972;7.072;2023-03-01T05:17:59;102311.16;;;-1.13;76.16
8140;BME280;4111;50.972;7.072;2023-03-01T05:20:27;102308.66;;;-1.14;75.82
8140;BME280;4111;50.972;7.072;2023-03-01T05:22:56;102302.72;;;-1.18;76.24
8140;BME280;4111;50.972;7.072;2023-03-01T05:25:23;102306.75;;;-1.24;76.43
8140;BME280;4111;50.972;7.072;2023-03-01T05:27:50;102313.28;;;-1.16;76.01
8140;BME280;4111;50.972;7.072;2023-03-01T05:30:17;102310.72;;;-1.18;76.10
8140;BME280;4111;50.972;7.072;2023-03-01T05:32:46;102308.31;;;-1.21;76.36
8140;BME280;4111;50.972;7.072;2023-03-01T05:35:15;102304.69;;;-1.20;76.51
8140;BME280;4111;50.972;7.072;2023-03-01T05:37:46;102306.09;;;-1.16;76.31
8140;BME280;4111;50.972;7.072;2023-03-01T05:40:16;102304.16;;;-1.14;76.03
8140;BME280;4111;50.972;7.072;2023-03-01T05:42:44;102305.91;;;-1.24;76.52
8140;BME280;4111;50.972;7.072;2023-03-01T05:45:11;102303.50;;;-1.27;76.43
8140;BME280;4111;50.972;7.072;2023-03-01T05:47:40;102310.72;;;-1.39;76.68
8140;BME280;4111;50.972;7.072;2023-03-01T05:50:18;102312.97;;;-1.34;76.65
8140;BME280;4111;50.972;7.072;2023-03-01T05:52:50;102312.22;;;-1.25;76.48
8140;BME280;4111;50.972;7.072;2023-03-01T05:55:19;102309.59;;;-1.36;76.56
8140;BME280;4111;50.972;7.072;2023-03-01T05:57:46;102307.41;;;-1.31;76.56
8140;BME280;4111;50.972;7.072;2023-03-01T06:00:15;102298.16;;;-1.27;76.95
8140;BME280;4111;50.972;7.072;2023-03-01T06:02:42;102301.31;;;-1.22;76.48
8140;BME280;4111;50.972;7.072;2023-03-01T06:05:10;102296.88;;;-1.33;76.71
8140;BME280;4111;50.972;7.072;2023-03-01T06:07:38;102300.66;;;-1.35;76.52
8140;BME280;4111;50.972;7.072;2023-03-01T06:10:06;102287.56;;;-1.38;77.02
8140;BME280;4111;50.972;7.072;2023-03-01T06:12:34;102293.16;;;-1.42;76.86
8140;BME280;4111;50.972;7.072;2023-03-01T06:15:01;102293.63;;;-1.36;76.72
8140;BME280;4111;50.972;7.072;2023-03-01T06:17:33;102300.88;;;-1.38;77.10
8140;BME280;4111;50.972;7.072;2023-03-01T06:22:35;102297.16;;;-1.36;76.97
8140;BME280;4111;50.972;7.072;2023-03-01T06:25:02;102291.63;;;-1.44;77.44
8140;BME280;4111;50.972;7.072;2023-03-01T06:27:29;102292.19;;;-1.41;77.02
8140;BME280;4111;50.972;7.072;2023-03-01T06:29:55;102298.50;;;-1.42;77.26
8140;BME280;4111;50.972;7.072;2023-03-01T06:32:22;102301.22;;;-1.32;77.39
8140;BME280;4111;50.972;7.072;2023-03-01T06:34:49;102300.38;;;-1.32;77.85
8140;BME280;4111;50.972;7.072;2023-03-01T06:37:16;102296.50;;;-1.28;77.21
8140;BME280;4111;50.972;7.072;2023-03-01T06:39:42;102299.59;;;-1.23;77.48
8140;BME280;4111;50.972;7.072;2023-03-01T06:42:09;102295.97;;;-1.22;77.04
8140;BME280;4111;50.972;7.072;2023-03-01T06:44:38;102288.69;;;-1.20;77.37
8140;BME280;4111;50.972;7.072;2023-03-01T06:47:04;102290.16;;;-1.06;77.04
8140;BME280;4111;50.972;7.072;2023-03-01T06:49:31;102294.44;;;-0.94;77.02
8140;BME280;4111;50.972;7.072;2023-03-01T06:51:57;102284.34;;;-0.90;76.77
8140;BME280;4111;50.972;7.072;2023-03-01T06:54:24;102289.56;;;-0.89;76.71
8140;BME280;4111;50.972;7.072;2023-03-01T06:56:50;102295.63;;;-0.87;77.19
8140;BME280;4111;50.972;7.072;2023-03-01T06:59:17;102294.63;;;-0.86;76.77
8140;BME280;4111;50.972;7.072;2023-03-01T07:01:44;102301.00;;;-0.77;76.81
8140;BME280;4111;50.972;7.072;2023-03-01T07:04:11;102297.63;;;-0.69;77.16
8140;BME280;4111;50.972;7.072;2023-03-01T07:06:38;102296.00;;;-0.61;76.99
8140;BME280;4111;50.972;7.072;2023-03-01T07:09:05;102291.78;;;-0.53;76.99
8140;BME280;4111;50.972;7.072;2023-03-01T07:11:31;102294.19;;;-0.50;76.74
8140;BME280;4111;50.972;7.072;2023-03-01T07:13:58;102293.97;;;-0.37;76.57
8140;BME280;4111;50.972;7.072;2023-03-01T07:16:26;102285.00;;;-0.27;76.70
8140;BME280;4111;50.972;7.072;2023-03-01T07:18:52;102283.31;;;-0.18;76.51
8140;BME280;4111;50.972;7.072;2023-03-01T07:21:19;102287.13;;;-0.21;75.19
8140;BME280;4111;50.972;7.072;2023-03-01T07:23:47;102288.53;;;-0.07;74.97
8140;BME280;4111;50.972;7.072;2023-03-01T07:26:14;102276.72;;;-0.04;73.99
8140;BME280;4111;50.972;7.072;2023-03-01T07:28:40;102281.94;;;0.07;73.98
8140;BME280;4111;50.972;7.072;2023-03-01T07:31:07;102283.78;;;0.16;73.87
8140;BME280;4111;50.972;7.072;2023-03-01T07:33:33;102276.75;;;0.15;73.07
8140;BME280;4111;50.972;7.072;2023-03-01T07:36:02;102275.22;;;0.23;72.47
8140;BME280;4111;50.972;7.072;2023-03-01T07:38:29;102276.34;;;0.20;72.10
8140;BME280;4111;50.972;7.072;2023-03-01T07:41:00;102278.44;;;0.26;71.58
8140;BME280;4111;50.972;7.072;2023-03-01T07:43:28;102281.13;;;0.36;71.88
8140;BME280;4111;50.972;7.072;2023-03-01T07:45:58;102286.28;;;0.57;71.37
8140;BME280;4111;50.972;7.072;2023-03-01T07:48:25;102285.44;;;0.66;71.33
8140;BME280;4111;50.972;7.072;2023-03-01T07:50:51;102281.63;;;0.69;70.59
8140;BME280;4111;50.972;7.072;2023-03-01T07:53:18;102285.84;;;0.81;71.07
8140;BME280;4111;50.972;7.072;2023-03-01T07:55:44;102274.66;;;1.05;70.27
8140;BME280;4111;50.972;7.072;2023-03-01T07:58:11;102271.75;;;1.26;70.26
8140;BME280;4111;50.972;7.072;2023-03-01T08:00:37;102272.34;;;1.48;69.25
8140;BME280;4111;50.972;7.072;2023-03-01T08:03:03;102269.34;;;1.61;69.51
8140;BME280;4111;50.972;7.072;2023-03-01T08:05:30;102263.25;;;1.68;68.49
8140;BME280;4111;50.972;7.072;2023-03-01T08:07:56;102261.66;;;1.93;68.39
8140;BME280;4111;50.972;7.072;2023-03-01T08:10:23;102258.59;;;2.06;67.63
8140;BME280;4111;50.972;7.072;2023-03-01T08:12:51;102255.84;;;1.98;67.04
8140;BME280;4111;50.972;7.072;2023-03-01T08:15:18;102264.88;;;1.97;66.67
8140;BME280;4111;50.972;7.072;2023-03-01T08:17:45;102259.69;;;2.13;66.71
8140;BME280;4111;50.972;7.072;2023-03-01T08:20:11;102261.88;;;2.36;66.54
8140;BME280;4111;50.972;7.072;2023-03-01T08:22:38;102259.19;;;2.36;65.74
8140;BME280;4111;50.972;7.072;2023-03-01T08:25:05;102257.41;;;2.45;65.22
8140;BME280;4111;50.972;7.072;2023-03-01T08:27:32;102263.75;;;2.62;65.48
8140;BME280;4111;50.972;7.072;2023-03-01T08:29:58;102255.13;;;2.76;65.45
8140;BME280;4111;50.972;7.072;2023-03-01T08:32:24;102263.59;;;2.89;64.88
8140;BME280;4111;50.972;7.072;2023-03-01T08:34:51;102263.13;;;2.68;63.74
8140;BME280;4111;50.972;7.072;2023-03-01T08:37:17;102263.50;;;2.73;63.80
8140;BME280;4111;50.972;7.072;2023-03-01T08:39:43;102266.72;;;2.76;63.71
8140;BME280;4111;50.972;7.072;2023-03-01T08:42:10;102266.88;;;2.75;63.00
8140;BME280;4111;50.972;7.072;2023-03-01T08:44:36;102260.50;;;2.76;63.15
8140;BME280;4111;50.972;7.072;2023-03-01T08:47:03;102264.53;;;2.80;62.87
8140;BME280;4111;50.972;7.072;2023-03-01T08:49:31;102256.91;;;2.93;62.58
8140;BME280;4111;50.972;7.072;2023-03-01T08:51:58;102260.63;;;2.92;62.30
8140;BME280;4111;50.972;7.072;2023-03-01T08:54:25;102258.06;;;3.17;62.40
8140;BME280;4111;50.972;7.072;2023-03-01T08:56:51;102255.41;;;3.25;61.76
8140;BME280;4111;50.972;7.072;2023-03-01T08:59:18;102262.53;;;3.43;61.04
8140;BME280;4111;50.972;7.072;2023-03-01T09:01:45;102254.22;;;3.70;61.24
8140;BME280;4111;50.972;7.072;2023-03-01T09:04:12;102262.97;;;3.72;60.29
8140;BME280;4111;50.972;7.072;2023-03-01T09:06:38;102262.28;;;3.62;59.91
8140;BME280;4111;50.972;7.072;2023-03-01T09:09:05;102254.19;;;3.54;59.46
8140;BME280;4111;50.972;7.072;2023-03-01T09:11:32;102258.13;;;3.76;59.37
8140;BME280;4111;50.972;7.072;2023-03-01T09:13:59;102253.59;;;3.93;59.25
8140;BME280;4111;50.972;7.072;2023-03-01T09:16:25;102248.88;;;3.87;58.79
8140;BME280;4111;50.972;7.072;2023-03-01T09:18:53;102252.97;;;4.15;58.96
8140;BME280;4111;50.972;7.072;2023-03-01T09:21:21;102247.44;;;4.25;58.78
8140;BME280;4111;50.972;7.072;2023-03-01T09:24:06;102256.00;;;4.29;57.97
8140;BME280;4111;50.972;7.072;2023-03-01T09:26:32;102256.34;;;4.09;57.68
8140;BME280;4111;50.972;7.072;2023-03-01T09:28:59;102242.22;;;4.32;57.29
8140;BME280;4111;50.972;7.072;2023-03-01T09:31:26;102240.88;;;4.28;57.04
8140;BME280;4111;50.972;7.072;2023-03-01T09:33:53;102244.91;;;4.24;57.05
8140;BME280;4111;50.972;7.072;2023-03-01T09:36:22;102235.84;;;4.25;56.87
8140;BME280;4111;50.972;7.072;2023-03-01T09:38:49;102224.41;;;4.31;56.82
8140;BME280;4111;50.972;7.072;2023-03-01T09:41:33;102230.09;;;4.69;56.94
8140;BME280;4111;50.972;7.072;2023-03-01T09:46:56;102228.44;;;4.51;56.15
8140;BME280;4111;50.972;7.072;2023-03-01T09:49:30;102219.53;;;4.51;56.13
8140;BME280;4111;50.972;7.072;2023-03-01T09:54:54;102216.25;;;4.88;56.24
8140;BME280;4111;50.972;7.072;2023-03-01T09:57:32;102212.53;;;4.89;55.74
8140;BME280;4111;50.972;7.072;2023-03-01T10:00:13;102221.31;;;4.83;55.24
8140;BME280;4111;50.972;7.072;2023-03-01T10:02:58;102224.38;;;4.64;55.36
8140;BME280;4111;50.972;7.072;2023-03-01T10:10:38;102219.47;;;5.31;55.06
8140;BME280;4111;50.972;7.072;2023-03-01T10:13:16;102210.19;;;5.65;54.91
8140;BME280;4111;50.972;7.072;2023-03-01T10:15:48;102208.72;;;5.86;54.82
8140;BME280;4111;50.972;7.072;2023-03-01T10:18:22;102198.56;;;5.96;54.17
8140;BME280;4111;50.972;7.072;2023-03-01T10:20:57;102191.78;;;6.00;53.98
8140;BME280;4111;50.972;7.072;2023-03-01T10:23:26;102189.97;;;5.69;53.43
8140;BME280;4111;50.972;7.072;2023-03-01T10:28:57;102191.25;;;5.50;53.50
8140;BME280;4111;50.972;7.072;2023-03-01T10:31:39;102179.28;;;5.53;53.33
8140;BME280;4111;50.972;7.072;2023-03-01T10:34:32;102162.69;;;5.64;52.93
8140;BME280;4111;50.972;7.072;2023-03-01T10:37:11;102164.78;;;6.08;53.29
8140;BME280;4111;50.972;7.072;2023-03-01T10:40:04;102167.00;;;6.20;52.65
8140;BME280;4111;50.972;7.072;2023-03-01T10:42:39;102166.09;;;6.12;52.04
8140;BME280;4111;50.972;7.072;2023-03-01T10:48:21;102165.84;;;5.99;51.69
8140;BME280;4111;50.972;7.072;2023-03-01T10:53:32;102158.22;;;5.80;51.26
8140;BME280;4111;50.972;7.072;2023-03-01T10:56:02;102149.78;;;5.83;52.01
8140;BME280;4111;50.972;7.072;2023-03-01T10:58:30;102146.25;;;6.05;52.05
8140;BME280;4111;50.972;7.072;2023-03-01T11:01:02;102134.03;;;5.94;51.53
8140;BME280;4111;50.972;7.072;2023-03-01T11:03:30;102128.63;;;5.94;51.43
8140;BME280;4111;50.972;7.072;2023-03-01T11:06:21;102117.66;;;5.96;51.59
8140;BME280;4111;50.972;7.072;2023-03-01T11:08:49;102116.94;;;6.02;51.47
8140;BME280;4111;50.972;7.072;2023-03-01T11:11:33;102112.88;;;6.06;51.18
8140;BME280;4111;50.972;7.072;2023-03-01T11:14:07;102109.28;;;6.29;51.90
8140;BME280;4111;50.972;7.072;2023-03-01T11:17:00;102106.78;;;6.72;51.62
8140;BME280;4111;50.972;7.072;2023-03-01T11:19:27;102100.22;;;6.81;51.24
8140;BME280;4111;50.972;7.072;2023-03-01T11:22:30;102086.09;;;6.79;50.89
8140;BME280;4111;50.972;7.072;2023-03-01T11:24:52;102096.25;;;6.62;50.08
8140;BME280;4111;50.972;7.072;2023-03-01T11:27:38;102088.25;;;6.69;50.11
8140;BME280;4111;50.972;7.072;2023-03-01T11:33:20;102094.25;;;7.01;49.45
8140;BME280;4111;50.972;7.072;2023-03-01T11:35:59;102080.31;;;6.82;49.76
8140;BME280;4111;50.972;7.072;2023-03-01T11:38:29;102078.34;;;6.91;49.60
8140;BME280;4111;50.972;7.072;2023-03-01T11:41:06;102075.31;;;7.15;49.63
8140;BME280;4111;50.972;7.072;2023-03-01T11:43:40;102072.84;;;7.21;49.65
8140;BME280;4111;50.972;7.072;2023-03-01T11:54:30;102046.75;;;7.99;48.22
8140;BME280;4111;50.972;7.072;2023-03-01T11:57:07;102046.34;;;7.74;47.29
8140;BME280;4111;50.972;7.072;2023-03-01T11:59:47;102047.19;;;7.74;47.15
8140;BME280;4111;50.972;7.072;2023-03-01T12:02:20;102036.84;;;7.57;46.53
8140;BME280;4111;50.972;7.072;2023-03-01T12:05:16;102025.06;;;7.64;46.26
8140;BME280;4111;50.972;7.072;2023-03-01T12:08:17;102013.66;;;7.97;46.70
8140;BME280;4111;50.972;7.072;2023-03-01T12:19:21;102011.25;;;8.50;44.98
8140;BME280;4111;50.972;7.072;2023-03-01T12:22:17;102020.81;;;8.46;44.19
8140;BME280;4111;50.972;7.072;2023-03-01T12:25:07;102008.03;;;8.75;43.79
8140;BME280;4111;50.972;7.072;2023-03-01T12:38:42;101976.22;;;9.90;41.67
8140;BME280;4111;50.972;7.072;2023-03-01T12:44:04;101978.63;;;10.39;41.24
8140;BME280;4111;50.972;7.072;2023-03-01T12:46:52;101977.41;;;10.15;40.37
8140;BME280;4111;50.972;7.072;2023-03-01T12:49:26;101976.41;;;10.02;39.85
8140;BME280;4111;50.972;7.072;2023-03-01T12:54:53;101968.88;;;10.04;39.86
8140;BME280;4111;50.972;7.072;2023-03-01T12:57:34;101955.75;;;9.95;39.64
8140;BME280;4111;50.972;7.072;2023-03-01T13:08:27;101941.44;;;10.39;38.83
8140;BME280;4111;50.972;7.072;2023-03-01T13:11:01;101932.78;;;10.94;39.26
8140;BME280;4111;50.972;7.072;2023-03-01T13:13:30;101927.81;;;10.84;39.58
8140;BME280;4111;50.972;7.072;2023-03-01T13:15:57;101925.56;;;11.06;39.88
8140;BME280;4111;50.972;7.072;2023-03-01T13:18:41;101931.56;;;11.40;39.65
8140;BME280;4111;50.972;7.072;2023-03-01T13:21:07;101929.06;;;11.82;39.75
8140;BME280;4111;50.972;7.072;2023-03-01T13:23:37;101925.13;;;11.35;38.82
8140;BME280;4111;50.972;7.072;2023-03-01T13:31:05;101930.28;;;11.43;39.46
8140;BME280;4111;50.972;7.072;2023-03-01T13:36:02;101927.91;;;11.28;38.38
8140;BME280;4111;50.972;7.072;2023-03-01T13:49:53;101913.16;;;11.61;37.49
8140;BME280;4111;50.972;7.072;2023-03-01T13:52:46;101912.53;;;12.02;37.08
8140;BME280;4111;50.972;7.072;2023-03-01T13:57:43;101899.81;;;12.75;36.45
8140;BME280;4111;50.972;7.072;2023-03-01T14:00:34;101887.53;;;12.84;35.59
8140;BME280;4111;50.972;7.072;2023-03-01T14:03:03;101895.22;;;12.76;35.75
8140;BME280;4111;50.972;7.072;2023-03-01T14:05:32;101891.03;;;13.03;35.09
8140;BME280;4111;50.972;7.072;2023-03-01T14:07:59;101884.19;;;13.36;34.99
8140;BME280;4111;50.972;7.072;2023-03-01T14:10:31;101889.72;;;13.18;34.48
8140;BME280;4111;50.972;7.072;2023-03-01T14:13:23;101883.78;;;13.80;34.58
8140;BME280;4111;50.972;7.072;2023-03-01T14:18:36;101878.69;;;13.83;33.50
8140;BME280;4111;50.972;7.072;2023-03-01T14:21:08;101870.75;;;13.70;33.09
8140;BME280;4111;50.972;7.072;2023-03-01T14:23:38;101869.63;;;13.95;33.84
8140;BME280;4111;50.972;7.072;2023-03-01T14:26:07;101869.84;;;13.41;34.23
8140;BME280;4111;50.972;7.072;2023-03-01T14:28:36;101863.53;;;13.52;35.02
8140;BME280;4111;50.972;7.072;2023-03-01T14:31:45;101851.06;;;14.08;34.95
8140;BME280;4111;50.972;7.072;2023-03-01T14:34:23;101850.97;;;13.51;35.29
8140;BME280;4111;50.972;7.072;2023-03-01T14:36:50;101856.41;;;14.44;35.67
8140;BME280;4111;50.972;7.072;2023-03-01T14:39:24;101860.19;;;13.74;35.15
8140;BME280;4111;50.972;7.072;2023-03-01T14:41:52;101847.63;;;13.14;35.66
8140;BME280;4111;50.972;7.072;2023-03-01T14:44:21;101847.97;;;13.64;36.27
8140;BME280;4111;50.972;7.072;2023-03-01T14:46:52;101843.22;;;13.24;36.31
8140;BME280;4111;50.972;7.072;2023-03-01T14:49:22;101841.09;;;13.26;37.23
8140;BME280;4111;50.972;7.072;2023-03-01T14:52:05;101843.94;;;13.79;36.88
8140;BME280;4111;50.972;7.072;2023-03-01T14:54:43;101842.66;;;13.46;36.99
8140;BME280;4111;50.972;7.072;2023-03-01T14:57:21;101834.78;;;13.73;37.12
8140;BME280;4111;50.972;7.072;2023-03-01T14:59:49;101829.81;;;13.23;37.05
8140;BME280;4111;50.972;7.072;2023-03-01T15:02:21;101826.63;;;13.14;37.06
8140;BME280;4111;50.972;7.072;2023-03-01T15:04:51;101822.63;;;12.51;37.21
8140;BME280;4111;50.972;7.072;2023-03-01T15:07:18;101828.91;;;12.52;37.74
8140;BME280;4111;50.972;7.072;2023-03-01T15:09:45;101829.72;;;12.40;37.92
8140;BME280;4111;50.972;7.072;2023-03-01T15:14:57;101826.47;;;12.74;37.93